Time;durP1;ratioP1;P1;durP2;ratioP2;P2;SDS_P1;SDS_P2;PMS_P1;PMS_P2;Temp;Humidity;BMP_temperature;BMP_pressure;BME280_temperature;BME280_humidity;BME280_pressure;Samples;Min_cycle;Max_cycle;Signal;HPM_P1;HPM_P2
2022/03/13 00:00:57;;;;;;;;;;;8.70;99.90;;;;;;6127560;23;19921;-86
2022/03/13 00:03:26;;;;;;;;;;;10.60;99.90;;;;;;6127228;23;19931;-86
2022/03/13 00:05:54;;;;;;;;;;;10.60;99.90;;;;;;6127559;23;19925;-87
2022/03/13 00:08:23;;;;;;;;;;;10.30;99.90;;;;;;6127950;23;19925;-87
2022/03/13 00:10:56;;;;;;;;;;;10.10;99.90;;;;;;6127439;23;20257;-86
2022/03/13 00:13:24;;;;;;;;;;;10.10;99.90;;;;;;6127280;23;19921;-86
2022/03/13 00:15:52;;;;;;;;;;;10.20;99.90;;;;;;6127981;23;19995;-86
2022/03/13 00:18:19;;;;;;;;;;;10.10;99.90;;;;;;6127953;23;20237;-87
2022/03/13 00:20:48;;;;;;;;;;;10.40;99.90;;;;;;6127910;23;19921;-86
2022/03/13 00:23:15;;;;;;;;;;;10.10;99.90;;;;;;6126988;23;19928;-87
2022/03/13 00:25:42;;;;;;;;;;;10.10;99.90;;;;;;6127685;23;20300;-87
2022/03/13 00:28:12;;;;;;;;;;;10.50;99.90;;;;;;6127302;23;19921;-87
2022/03/13 00:30:39;;;;;;;;;;;10.00;99.90;;;;;;6127815;23;19928;-86
2022/03/13 00:33:06;;;;;;;;;;;10.50;99.90;;;;;;6127224;23;20276;-86
2022/03/13 00:35:33;;;;;;;;;;;10.10;99.90;;;;;;6127147;23;20020;-86
2022/03/13 00:38:01;;;;;;;;;;;10.10;99.90;;;;;;6128095;23;19921;-86
2022/03/13 00:40:28;;;;;;;;;;;7.90;99.90;;;;;;6127620;23;19925;-87
2022/03/13 00:42:55;;;;;;;;;;;10.10;99.90;;;;;;6126941;23;19921;-86
2022/03/13 00:45:22;;;;;;;;;;;10.50;99.90;;;;;;6127494;23;19976;-87
2022/03/13 00:47:49;;;;;;;;;;;10.40;99.90;;;;;;6127131;23;19921;-87
2022/03/13 00:50:16;;;;;;;;;;;10.40;99.90;;;;;;6127318;23;19921;-87
2022/03/13 00:52:43;;;;;;;;;;;10.00;99.90;;;;;;6127444;23;19921;-87
2022/03/13 00:55:11;;;;;;;;;;;10.00;99.90;;;;;;6127309;23;19925;-86
2022/03/13 00:57:38;;;;;;;;;;;10.10;99.90;;;;;;6127286;23;19928;-86
2022/03/13 01:00:06;;;;;;;;;;;10.00;99.90;;;;;;6127405;23;19925;-86
2022/03/13 01:02:34;;;;;;;;;;;10.10;99.90;;;;;;6127079;23;19921;-87
2022/03/13 01:05:00;;;;;;;;;;;9.60;99.90;;;;;;6127230;23;19921;-86
2022/03/13 01:07:27;;;;;;;;;;;10.10;99.90;;;;;;6126898;23;19921;-87
2022/03/13 01:09:54;;;;;;;;;;;10.10;99.90;;;;;;6127560;23;19979;-87
2022/03/13 01:12:22;;;;;;;;;;;10.10;99.90;;;;;;6126906;23;19920;-87
2022/03/13 01:14:49;;;;;;;;;;;10.20;99.90;;;;;;6127205;23;19921;-88
2022/03/13 01:17:19;;;;;;;;;;;10.10;99.90;;;;;;6127265;23;19925;-87
2022/03/13 01:19:46;;;;;;;;;;;10.20;99.90;;;;;;6127337;23;19927;-87
2022/03/13 01:22:13;;;;;;;;;;;9.90;99.90;;;;;;6126844;23;19920;-87
2022/03/13 01:24:43;;;;;;;;;;;10.20;99.90;;;;;;6127274;23;19984;-88
2022/03/13 01:27:10;;;;;;;;;;;10.20;99.90;;;;;;6127168;23;19931;-87
2022/03/13 01:29:39;;;;;;;;;;;10.60;99.90;;;;;;6126742;23;19921;-87
2022/03/13 01:32:09;;;;;;;;;;;10.20;99.90;;;;;;6127012;23;19921;-87
2022/03/13 01:34:43;;;;;;;;;;;10.30;99.90;;;;;;6127156;23;19921;-87
2022/03/13 01:37:13;;;;;;;;;;;9.60;99.90;;;;;;6126675;23;20022;-85
2022/03/13 01:39:40;;;;;;;;;;;10.20;99.90;;;;;;6127088;23;19925;-87
2022/03/13 01:42:07;;;;;;;;;;;10.20;99.90;;;;;;6126913;23;19948;-87
2022/03/13 01:44:34;;;;;;;;;;;10.20;99.90;;;;;;6126958;23;19921;-87
2022/03/13 01:47:03;;;;;;;;;;;10.10;99.90;;;;;;6126824;23;19921;-87
2022/03/13 01:49:30;;;;;;;;;;;10.10;99.90;;;;;;6128384;23;20003;-87
2022/03/13 01:51:57;;;;;;;;;;;10.10;99.90;;;;;;6128491;23;20333;-87
2022/03/13 01:54:24;;;;;;;;;;;10.10;99.90;;;;;;6128547;23;20296;-87
2022/03/13 01:56:51;;;;;;;;;;;10.10;99.90;;;;;;6128522;23;19921;-87
2022/03/13 01:59:18;;;;;;;;;;;10.50;99.90;;;;;;6128375;23;19936;-88
2022/03/13 02:01:45;;;;;;;;;;;10.10;99.90;;;;;;6128372;23;20657;-88
2022/03/13 02:04:13;;;;;;;;;;;10.10;99.90;;;;;;6128601;23;20396;-87
2022/03/13 02:06:40;;;;;;;;;;;10.10;99.90;;;;;;6128611;23;19944;-87
2022/03/13 02:09:08;;;;;;;;;;;10.10;99.90;;;;;;6128400;23;20233;-87
2022/03/13 02:11:40;;;;;;;;;;;10.10;99.90;;;;;;6128385;23;20344;-87
2022/03/13 02:14:08;;;;;;;;;;;10.20;99.90;;;;;;6129149;23;19921;-87
2022/03/13 02:16:35;;;;;;;;;;;10.20;99.90;;;;;;6128594;23;19973;-87
2022/03/13 02:19:02;;;;;;;;;;;10.20;99.90;;;;;;6128456;23;19921;-87
2022/03/13 02:21:31;;;;;;;;;;;10.30;99.90;;;;;;6128349;23;19921;-87
2022/03/13 02:24:02;;;;;;;;;;;9.60;99.90;;;;;;6128346;23;19925;-87
2022/03/13 02:26:32;;;;;;;;;;;9.90;99.90;;;;;;6128400;23;19972;-87
2022/03/13 02:28:59;;;;;;;;;;;9.30;99.90;;;;;;6128621;23;19925;-87
2022/03/13 02:31:28;;;;;;;;;;;9.90;99.90;;;;;;6128317;23;19921;-86
2022/03/13 02:33:55;;;;;;;;;;;9.60;99.90;;;;;;6128733;23;20000;-88
2022/03/13 02:36:33;;;;;;;;;;;9.60;99.90;;;;;;6127827;23;19958;-87
2022/03/13 02:39:01;;;;;;;;;;;9.50;99.90;;;;;;6129029;23;19928;-87
2022/03/13 02:41:28;;;;;;;;;;;9.00;99.90;;;;;;6128368;23;19964;-87
2022/03/13 02:43:55;;;;;;;;;;;9.40;99.90;;;;;;6128155;23;19925;-87
2022/03/13 02:46:23;;;;;;;;;;;9.40;99.90;;;;;;6128569;23;19976;-87
2022/03/13 02:48:51;;;;;;;;;;;9.30;99.90;;;;;;6128738;23;19921;-87
2022/03/13 02:51:18;;;;;;;;;;;9.30;99.90;;;;;;6128507;23;19921;-87
2022/03/13 02:53:45;;;;;;;;;;;9.30;99.90;;;;;;6128376;23;19991;-87
2022/03/13 02:56:13;;;;;;;;;;;9.30;99.90;;;;;;6128481;23;19968;-87
2022/03/13 02:58:40;;;;;;;;;;;9.30;99.90;;;;;;6128488;23;19921;-87
2022/03/13 03:01:07;;;;;;;;;;;9.30;99.90;;;;;;6128117;23;19921;-87
2022/03/13 03:03:34;;;;;;;;;;;9.50;99.90;;;;;;6127982;23;19924;-86
2022/03/13 03:06:01;;;;;;;;;;;9.40;99.90;;;;;;6128145;23;19921;-87
2022/03/13 03:08:28;;;;;;;;;;;9.40;99.90;;;;;;6128131;23;20024;-87
2022/03/13 03:10:54;;;;;;;;;;;9.40;99.90;;;;;;6127738;23;20218;-86
2022/03/13 03:13:23;;;;;;;;;;;9.30;99.90;;;;;;6128308;23;19976;-87
2022/03/13 03:15:49;;;;;;;;;;;9.30;99.90;;;;;;6127943;23;20356;-87
2022/03/13 03:18:16;;;;;;;;;;;9.30;99.90;;;;;;6128156;23;19921;-87
2022/03/13 03:20:43;;;;;;;;;;;9.30;99.90;;;;;;6128066;23;20340;-87
2022/03/13 03:23:10;;;;;;;;;;;9.40;99.90;;;;;;6127989;23;19925;-87
2022/03/13 03:25:38;;;;;;;;;;;9.50;99.90;;;;;;6127841;23;20026;-87
2022/03/13 03:28:05;;;;;;;;;;;9.40;99.90;;;;;;6128038;23;19921;-85
2022/03/13 03:30:33;;;;;;;;;;;9.30;99.90;;;;;;6128134;23;19920;-86
2022/03/13 03:33:01;;;;;;;;;;;9.40;99.90;;;;;;6127652;23;20329;-85
2022/03/13 03:35:28;;;;;;;;;;;9.40;99.90;;;;;;6127689;23;19933;-85
2022/03/13 03:37:56;;;;;;;;;;;9.50;99.90;;;;;;6127773;23;19925;-85
2022/03/13 03:40:23;;;;;;;;;;;10.20;99.90;;;;;;6128184;23;19921;-86
2022/03/13 03:42:50;;;;;;;;;;;9.40;99.90;;;;;;6128182;23;19925;-86
2022/03/13 03:45:18;;;;;;;;;;;9.30;99.90;;;;;;6127320;23;19976;-86
2022/03/13 03:47:46;;;;;;;;;;;9.30;99.90;;;;;;6128004;23;19925;-86
2022/03/13 03:50:13;;;;;;;;;;;9.30;99.90;;;;;;6127523;23;20032;-86
2022/03/13 03:52:41;;;;;;;;;;;9.30;99.90;;;;;;6127715;23;19925;-86
2022/03/13 03:55:08;;;;;;;;;;;9.80;99.90;;;;;;6127645;23;19968;-86
2022/03/13 03:57:35;;;;;;;;;;;9.60;99.90;;;;;;6127528;23;20367;-86
2022/03/13 04:00:02;;;;;;;;;;;9.40;99.90;;;;;;6127738;23;19927;-87
2022/03/13 04:02:28;;;;;;;;;;;9.40;99.90;;;;;;6127690;23;19925;-87
2022/03/13 04:04:57;;;;;;;;;;;9.50;99.90;;;;;;6127261;23;19968;-87
2022/03/13 04:07:23;;;;;;;;;;;9.90;99.90;;;;;;6127183;23;19968;-85
2022/03/13 04:09:50;;;;;;;;;;;9.90;99.90;;;;;;6127384;23;19924;-86
2022/03/13 04:12:18;;;;;;;;;;;9.50;99.90;;;;;;6126990;23;20257;-86
2022/03/13 04:14:45;;;;;;;;;;;9.50;99.90;;;;;;6127119;23;19921;-86
2022/03/13 04:17:13;;;;;;;;;;;9.40;99.90;;;;;;6127333;23;19921;-85
2022/03/13 04:19:39;;;;;;;;;;;9.50;99.90;;;;;;6126847;23;19921;-86
2022/03/13 04:22:07;;;;;;;;;;;9.50;99.90;;;;;;6126477;23;19921;-86
2022/03/13 04:24:34;;;;;;;;;;;9.50;99.90;;;;;;6126382;23;20337;-86
2022/03/13 04:27:02;;;;;;;;;;;9.40;99.90;;;;;;6127781;23;19921;-87
2022/03/13 04:29:29;;;;;;;;;;;9.40;99.90;;;;;;6127084;23;19925;-87
2022/03/13 04:31:57;;;;;;;;;;;9.40;99.90;;;;;;6127350;23;19928;-87
2022/03/13 04:34:24;;;;;;;;;;;9.40;99.90;;;;;;6127501;23;19933;-86
2022/03/13 04:36:51;;;;;;;;;;;9.40;99.90;;;;;;6127721;23;19927;-86
2022/03/13 04:39:19;;;;;;;;;;;9.70;99.90;;;;;;6127487;23;19975;-86
2022/03/13 04:41:46;;;;;;;;;;;9.30;99.90;;;;;;6127327;23;19921;-87
2022/03/13 04:44:14;;;;;;;;;;;9.30;99.90;;;;;;6127419;23;20280;-87
2022/03/13 04:46:41;;;;;;;;;;;9.30;99.90;;;;;;6127125;23;20000;-87
2022/03/13 04:49:08;;;;;;;;;;;9.80;99.90;;;;;;6127546;23;19921;-87
2022/03/13 04:51:35;;;;;;;;;;;8.90;99.90;;;;;;6126884;23;19925;-86
2022/03/13 04:54:02;;;;;;;;;;;9.30;99.90;;;;;;6127008;23;19921;-86
2022/03/13 04:56:32;;;;;;;;;;;9.30;99.90;;;;;;6127277;23;19921;-86
2022/03/13 04:58:58;;;;;;;;;;;9.70;99.90;;;;;;6127786;23;19921;-86
2022/03/13 05:01:25;;;;;;;;;;;9.20;99.90;;;;;;6127286;23;19928;-86
2022/03/13 05:03:53;;;;;;;;;;;9.30;99.90;;;;;;6127591;23;20292;-87
2022/03/13 05:06:20;;;;;;;;;;;9.30;99.90;;;;;;6127316;23;19931;-86
2022/03/13 05:08:49;;;;;;;;;;;9.60;99.90;;;;;;6127463;23;19928;-87
2022/03/13 05:11:18;;;;;;;;;;;9.30;99.90;;;;;;6127249;23;19921;-86
2022/03/13 05:13:46;;;;;;;;;;;9.30;99.90;;;;;;6127011;23;19921;-86
2022/03/13 05:16:13;;;;;;;;;;;9.30;99.90;;;;;;6128404;23;19921;-87
2022/03/13 05:18:40;;;;;;;;;;;9.30;99.90;;;;;;6127262;23;19921;-87
2022/03/13 05:21:06;;;;;;;;;;;9.40;99.90;;;;;;6127183;23;19920;-87
2022/03/13 05:23:33;;;;;;;;;;;9.50;99.90;;;;;;6127065;23;19925;-87
2022/03/13 05:26:00;;;;;;;;;;;9.50;99.90;;;;;;6127279;23;19925;-88
2022/03/13 05:28:27;;;;;;;;;;;9.50;99.90;;;;;;6126882;23;19957;-87
2022/03/13 05:30:55;;;;;;;;;;;9.90;99.90;;;;;;6127170;23;19921;-87
2022/03/13 05:33:22;;;;;;;;;;;9.50;99.90;;;;;;6127140;23;20030;-87
2022/03/13 05:35:48;;;;;;;;;;;9.50;99.90;;;;;;6127466;23;19921;-87
2022/03/13 05:38:17;;;;;;;;;;;8.90;99.90;;;;;;6125914;23;21432;-86
2022/03/13 05:40:44;;;;;;;;;;;9.50;99.90;;;;;;6126977;23;19996;-87
2022/03/13 05:43:11;;;;;;;;;;;9.50;99.90;;;;;;6127065;23;19925;-87
2022/03/13 05:45:39;;;;;;;;;;;9.10;99.90;;;;;;6127099;23;19952;-87
2022/03/13 05:48:09;;;;;;;;;;;9.50;99.90;;;;;;6126926;23;19956;-88
2022/03/13 05:50:35;;;;;;;;;;;9.40;99.90;;;;;;6126837;23;19925;-87
2022/03/13 05:53:03;;;;;;;;;;;9.50;99.90;;;;;;6126728;23;20416;-87
2022/03/13 05:55:30;;;;;;;;;;;9.40;99.90;;;;;;6126992;23;20092;-87
2022/03/13 05:57:58;;;;;;;;;;;9.50;99.90;;;;;;6126953;23;19952;-87
2022/03/13 06:00:25;;;;;;;;;;;9.50;99.90;;;;;;6126877;23;19925;-88
2022/03/13 06:02:52;;;;;;;;;;;9.40;99.90;;;;;;6126917;23;19921;-87
2022/03/13 06:05:21;;;;;;;;;;;9.40;99.90;;;;;;6127013;23;19931;-87
2022/03/13 06:07:48;;;;;;;;;;;9.60;99.90;;;;;;6127167;23;19920;-87
2022/03/13 06:10:15;;;;;;;;;;;9.40;99.90;;;;;;6126292;23;19921;-87
2022/03/13 06:12:42;;;;;;;;;;;9.40;99.90;;;;;;6126503;23;20229;-87
2022/03/13 06:15:11;;;;;;;;;;;9.40;99.90;;;;;;6126560;23;19927;-87
2022/03/13 06:17:39;;;;;;;;;;;9.30;99.90;;;;;;6126940;23;19921;-87
2022/03/13 06:20:10;;;;;;;;;;;9.30;99.90;;;;;;6126486;23;19921;-87
2022/03/13 06:22:38;;;;;;;;;;;9.30;99.90;;;;;;6126401;23;19928;-88
2022/03/13 06:25:06;;;;;;;;;;;8.20;99.90;;;;;;6126610;23;20387;-87
2022/03/13 06:27:33;;;;;;;;;;;9.30;99.90;;;;;;6125963;23;19921;-88
2022/03/13 06:30:10;;;;;;;;;;;9.40;99.90;;;;;;6126511;23;19927;-88
2022/03/13 06:32:37;;;;;;;;;;;9.40;99.90;;;;;;6126258;23;19927;-88
2022/03/13 06:35:03;;;;;;;;;;;9.40;99.90;;;;;;6127560;23;19928;-87
2022/03/13 06:37:30;;;;;;;;;;;9.40;99.90;;;;;;6128124;23;19924;-88
2022/03/13 06:39:59;;;;;;;;;;;9.40;99.90;;;;;;6128072;23;19920;-87
2022/03/13 06:42:25;;;;;;;;;;;9.40;99.90;;;;;;6127601;23;20462;-87
2022/03/13 06:44:52;;;;;;;;;;;9.40;99.90;;;;;;6127985;23;19921;-86
2022/03/13 06:47:19;;;;;;;;;;;9.40;99.90;;;;;;6127619;23;19931;-86
2022/03/13 06:49:46;;;;;;;;;;;9.50;99.90;;;;;;6128460;23;19921;-86
2022/03/13 06:52:13;;;;;;;;;;;9.50;99.90;;;;;;6128967;23;19921;-87
2022/03/13 06:54:40;;;;;;;;;;;9.40;99.90;;;;;;6128045;23;19921;-87
2022/03/13 06:57:08;;;;;;;;;;;9.40;99.90;;;;;;6128158;23;19945;-88
2022/03/13 06:59:35;;;;;;;;;;;9.40;99.90;;;;;;6128648;23;20338;-87
2022/03/13 07:02:01;;;;;;;;;;;9.60;99.90;;;;;;6128396;23;19980;-86
2022/03/13 07:04:28;;;;;;;;;;;9.50;99.90;;;;;;6128277;23;20301;-87
2022/03/13 07:06:55;;;;;;;;;;;9.40;99.90;;;;;;6128320;23;19929;-86
2022/03/13 07:09:22;;;;;;;;;;;9.40;99.90;;;;;;6128003;23;19936;-86
2022/03/13 07:11:49;;;;;;;;;;;9.10;99.90;;;;;;6128301;23;19921;-86
2022/03/13 07:14:18;;;;;;;;;;;9.40;99.90;;;;;;6128260;23;19984;-87
2022/03/13 07:16:45;;;;;;;;;;;9.40;99.90;;;;;;6128271;23;19920;-86
2022/03/13 07:19:12;;;;;;;;;;;9.40;99.90;;;;;;6128312;23;19984;-86
2022/03/13 07:21:39;;;;;;;;;;;9.40;99.90;;;;;;6127884;23;19925;-86
2022/03/13 07:24:06;;;;;;;;;;;9.40;99.90;;;;;;6127694;23;19921;-87
2022/03/13 07:26:33;;;;;;;;;;;9.30;99.90;;;;;;6127772;23;19920;-87
2022/03/13 07:29:01;;;;;;;;;;;7.50;99.90;;;;;;6127640;23;19921;-87
2022/03/13 07:31:29;;;;;;;;;;;9.70;99.90;;;;;;6127807;23;20003;-88
2022/03/13 07:33:56;;;;;;;;;;;8.80;99.90;;;;;;6128007;23;19932;-87
2022/03/13 07:36:23;;;;;;;;;;;9.70;99.90;;;;;;6127376;23;19925;-87
2022/03/13 07:38:50;;;;;;;;;;;9.50;99.90;;;;;;6128019;23;19992;-87
2022/03/13 07:41:16;;;;;;;;;;;9.60;99.90;;;;;;6127629;23;20336;-87
2022/03/13 07:43:43;;;;;;;;;;;9.50;99.90;;;;;;6128224;23;19925;-87
2022/03/13 07:46:10;;;;;;;;;;;9.60;99.90;;;;;;6127304;23;19932;-87
2022/03/13 07:48:38;;;;;;;;;;;9.20;99.90;;;;;;6127549;23;20352;-87
2022/03/13 07:51:06;;;;;;;;;;;9.80;99.90;;;;;;6127765;23;19921;-87
2022/03/13 07:53:33;;;;;;;;;;;9.80;99.90;;;;;;6127482;23;20340;-87
2022/03/13 07:55:59;;;;;;;;;;;9.70;99.90;;;;;;6127715;23;19925;-87
2022/03/13 07:58:26;;;;;;;;;;;9.90;99.90;;;;;;6127497;23;19924;-87
2022/03/13 08:00:53;;;;;;;;;;;9.90;99.90;;;;;;6127905;23;20261;-87
2022/03/13 08:03:28;;;;;;;;;;;10.00;99.90;;;;;;6127123;23;20416;-87
2022/03/13 08:05:56;;;;;;;;;;;10.60;99.90;;;;;;6127965;23;20358;-87
2022/03/13 08:08:23;;;;;;;;;;;10.10;99.90;;;;;;6128061;23;19928;-87
2022/03/13 08:10:50;;;;;;;;;;;10.20;99.90;;;;;;6127397;23;19928;-86
2022/03/13 08:13:17;;;;;;;;;;;10.40;99.90;;;;;;6127582;23;19921;-86
2022/03/13 08:15:43;;;;;;;;;;;10.80;99.90;;;;;;6127499;23;19928;-87
2022/03/13 08:18:12;;;;;;;;;;;10.50;99.90;;;;;;6127718;23;19929;-88
2022/03/13 08:20:39;;;;;;;;;;;10.50;99.90;;;;;;6127466;23;19921;-87
2022/03/13 08:23:07;;;;;;;;;;;10.60;99.90;;;;;;6126996;23;19925;-87
2022/03/13 08:25:34;;;;;;;;;;;10.80;99.90;;;;;;6127411;23;20337;-88
2022/03/13 08:28:01;;;;;;;;;;;10.80;99.90;;;;;;6127687;23;20225;-86
2022/03/13 08:30:28;;;;;;;;;;;10.70;99.90;;;;;;6127033;23;19997;-87
2022/03/13 08:32:55;;;;;;;;;;;10.60;99.90;;;;;;6127553;23;20425;-88
2022/03/13 08:35:22;;;;;;;;;;;10.60;99.90;;;;;;6126663;23;19968;-87
2022/03/13 08:37:49;;;;;;;;;;;10.40;99.90;;;;;;6127090;23;20429;-87
2022/03/13 08:40:18;;;;;;;;;;;10.80;99.90;;;;;;6127203;23;19932;-87
2022/03/13 08:42:44;;;;;;;;;;;10.80;99.90;;;;;;6126625;23;19920;-87
2022/03/13 08:45:12;;;;;;;;;;;10.70;99.90;;;;;;6126314;23;19921;-87
2022/03/13 08:47:39;;;;;;;;;;;10.70;99.90;;;;;;6126929;23;20047;-88
2022/03/13 08:50:06;;;;;;;;;;;10.80;99.90;;;;;;6127156;23;19976;-87
2022/03/13 08:52:35;;;;;;;;;;;10.80;99.90;;;;;;6127019;23;20048;-88
2022/03/13 08:55:01;;;;;;;;;;;10.80;99.90;;;;;;6126634;23;19927;-87
2022/03/13 08:57:30;;;;;;;;;;;10.80;99.90;;;;;;6127848;23;19968;-87
2022/03/13 08:59:57;;;;;;;;;;;10.70;99.90;;;;;;6126470;23;19921;-86
2022/03/13 09:02:23;;;;;;;;;;;10.70;99.90;;;;;;6127614;23;20008;-88
2022/03/13 09:04:50;;;;;;;;;;;11.20;99.90;;;;;;6127116;23;19927;-88
2022/03/13 09:07:17;;;;;;;;;;;10.80;99.90;;;;;;6126775;23;20325;-88
2022/03/13 09:09:46;;;;;;;;;;;10.90;99.90;;;;;;6126600;23;19924;-87
2022/03/13 09:12:13;;;;;;;;;;;11.00;99.90;;;;;;6125811;23;19947;-87
2022/03/13 09:14:41;;;;;;;;;;;11.10;99.90;;;;;;6127027;23;19921;-87
2022/03/13 09:17:09;;;;;;;;;;;11.10;99.90;;;;;;6126455;23;19921;-87
2022/03/13 09:19:36;;;;;;;;;;;11.00;99.90;;;;;;6127327;23;19925;-87
2022/03/13 09:22:03;;;;;;;;;;;11.10;99.90;;;;;;6126868;23;19920;-87
2022/03/13 09:24:30;;;;;;;;;;;11.20;99.90;;;;;;6126617;23;19977;-87
2022/03/13 09:26:57;;;;;;;;;;;11.40;99.90;;;;;;6126758;23;20241;-87
2022/03/13 09:29:23;;;;;;;;;;;11.30;99.90;;;;;;6126176;23;20376;-87
2022/03/13 09:31:52;;;;;;;;;;;11.30;99.90;;;;;;6126671;23;19927;-87
2022/03/13 09:34:20;;;;;;;;;;;9.70;99.90;;;;;;6126427;23;19936;-86
2022/03/13 09:36:47;;;;;;;;;;;9.20;99.90;;;;;;6126488;23;19928;-87
2022/03/13 09:39:14;;;;;;;;;;;11.30;99.90;;;;;;6126122;23;19924;-88
2022/03/13 09:41:41;;;;;;;;;;;10.80;99.90;;;;;;6126234;23;20312;-86
2022/03/13 09:44:08;;;;;;;;;;;11.10;99.90;;;;;;6128402;23;20008;-87
2022/03/13 09:46:36;;;;;;;;;;;11.20;99.90;;;;;;6127277;23;19920;-87
2022/03/13 09:49:04;;;;;;;;;;;11.40;99.90;;;;;;6127597;23;20380;-86
2022/03/13 09:51:31;;;;;;;;;;;11.70;99.90;;;;;;6126266;23;19921;-88
2022/03/13 09:53:58;;;;;;;;;;;11.60;99.90;;;;;;6127589;23;19928;-87
2022/03/13 09:56:25;;;;;;;;;;;11.70;99.90;;;;;;6127074;23;19921;-87
2022/03/13 09:58:54;;;;;;;;;;;11.70;99.90;;;;;;6128383;23;19928;-87
2022/03/13 10:01:21;;;;;;;;;;;11.90;99.90;;;;;;6126543;23;19956;-87
2022/03/13 10:03:51;;;;;;;;;;;12.00;99.90;;;;;;6126278;23;19925;-87
2022/03/13 10:06:19;;;;;;;;;;;12.10;99.90;;;;;;6125748;23;19960;-87
2022/03/13 10:08:45;;;;;;;;;;;12.20;99.90;;;;;;6126484;23;20388;-87
2022/03/13 10:11:13;;;;;;;;;;;12.20;99.90;;;;;;6130169;23;19991;-87
2022/03/13 10:13:45;;;;;;;;;;;11.90;99.90;;;;;;6128621;23;20264;-88
2022/03/13 10:16:15;;;;;;;;;;;12.30;99.90;;;;;;6129335;23;19921;-88
2022/03/13 10:18:42;;;;;;;;;;;12.50;99.90;;;;;;6128447;23;19927;-87
2022/03/13 10:21:09;;;;;;;;;;;12.30;99.90;;;;;;6128104;23;19921;-87
2022/03/13 10:23:38;;;;;;;;;;;12.50;99.90;;;;;;6128450;23;20252;-87
2022/03/13 10:26:05;;;;;;;;;;;12.40;99.90;;;;;;6128448;23;19992;-87
2022/03/13 10:28:32;;;;;;;;;;;12.20;99.90;;;;;;6128130;23;19976;-87
2022/03/13 10:31:07;;;;;;;;;;;12.30;99.90;;;;;;6128777;23;19925;-87
2022/03/13 10:33:51;;;;;;;;;;;12.30;99.90;;;;;;6128714;23;19932;-88
2022/03/13 10:36:19;;;;;;;;;;;12.50;99.90;;;;;;6127544;23;19939;-87
2022/03/13 10:38:48;;;;;;;;;;;12.50;99.90;;;;;;6128988;23;19984;-88
2022/03/13 10:41:15;;;;;;;;;;;10.80;99.90;;;;;;6127521;23;19960;-88
2022/03/13 10:43:49;;;;;;;;;;;12.50;99.90;;;;;;6127722;23;19983;-88
2022/03/13 10:46:25;;;;;;;;;;;12.50;99.90;;;;;;6127840;23;19925;-87
2022/03/13 10:48:52;;;;;;;;;;;12.90;99.90;;;;;;6128478;23;19932;-88
2022/03/13 10:51:31;;;;;;;;;;;12.70;99.90;;;;;;6129705;23;19925;-87
2022/03/13 10:54:00;;;;;;;;;;;12.20;99.90;;;;;;6129142;23;19976;-89
2022/03/13 10:56:27;;;;;;;;;;;12.70;99.90;;;;;;6128757;23;19928;-88
2022/03/13 10:58:54;;;;;;;;;;;12.70;99.90;;;;;;6129463;23;19925;-89
2022/03/13 11:01:32;;;;;;;;;;;12.80;99.90;;;;;;6127503;23;20000;-86
2022/03/13 11:03:59;;;;;;;;;;;13.70;99.90;;;;;;6128029;23;19921;-87
2022/03/13 11:06:27;;;;;;;;;;;12.70;99.90;;;;;;6127451;23;20004;-88
2022/03/13 11:08:55;;;;;;;;;;;12.60;99.90;;;;;;6128047;23;19972;-88
2022/03/13 11:11:24;;;;;;;;;;;12.60;99.90;;;;;;6127458;23;19920;-87
2022/03/13 11:13:55;;;;;;;;;;;12.80;99.90;;;;;;6129066;23;19964;-88
2022/03/13 11:16:22;;;;;;;;;;;12.90;99.90;;;;;;6128124;23;19921;-88
2022/03/13 11:18:51;;;;;;;;;;;14.40;99.90;;;;;;6127884;23;19929;-87
2022/03/13 11:21:18;;;;;;;;;;;12.80;99.90;;;;;;6127427;23;19920;-88
2022/03/13 11:23:45;;;;;;;;;;;12.80;99.90;;;;;;6128030;23;19921;-89
2022/03/13 11:26:16;;;;;;;;;;;13.60;99.90;;;;;;6128681;23;20293;-89
2022/03/13 11:28:45;;;;;;;;;;;13.20;99.90;;;;;;6128282;23;19921;-87
2022/03/13 11:31:28;;;;;;;;;;;12.80;99.90;;;;;;6128150;23;19984;-88
2022/03/13 11:34:09;;;;;;;;;;;12.90;99.90;;;;;;6128047;23;20345;-90
2022/03/13 11:36:36;;;;;;;;;;;12.70;99.90;;;;;;6127837;23;19947;-89
2022/03/13 11:39:06;;;;;;;;;;;12.90;99.90;;;;;;6128856;23;19928;-90
2022/03/13 11:41:36;;;;;;;;;;;13.10;99.90;;;;;;6127509;23;19932;-88
2022/03/13 11:44:30;;;;;;;;;;;13.20;99.90;;;;;;6127764;23;19921;-89
2022/03/13 11:46:58;;;;;;;;;;;13.30;99.90;;;;;;6126836;23;19952;-89
2022/03/13 11:49:37;;;;;;;;;;;13.50;99.90;;;;;;6128839;23;19933;-87
2022/03/13 11:52:20;;;;;;;;;;;13.40;99.90;;;;;;6129148;23;19927;-84
2022/03/13 11:54:55;;;;;;;;;;;13.40;99.90;;;;;;6127763;23;19984;-88
2022/03/13 11:57:22;;;;;;;;;;;13.10;99.90;;;;;;6127729;23;19921;-87
2022/03/13 12:00:08;;;;;;;;;;;13.80;99.90;;;;;;6131310;23;19921;-88
2022/03/13 12:02:45;;;;;;;;;;;13.20;99.90;;;;;;6128112;23;20260;-88
2022/03/13 12:05:31;;;;;;;;;;;13.30;99.90;;;;;;6130634;23;20293;-89
2022/03/13 12:08:04;;;;;;;;;;;13.30;99.90;;;;;;6130829;23;19928;-90
2022/03/13 12:10:34;;;;;;;;;;;13.60;99.90;;;;;;6128314;23;20268;-90
2022/03/13 12:13:04;;;;;;;;;;;13.60;99.90;;;;;;6127359;23;19925;-89
2022/03/13 12:15:33;;;;;;;;;;;13.80;99.90;;;;;;6127089;23;20004;-88
2022/03/13 12:18:01;;;;;;;;;;;13.70;99.90;;;;;;6127682;23;20383;-88
2022/03/13 12:20:31;;;;;;;;;;;13.70;99.90;;;;;;6128259;23;20311;-88
2022/03/13 12:22:59;;;;;;;;;;;13.70;99.90;;;;;;6128848;23;19929;-88
2022/03/13 12:25:26;;;;;;;;;;;14.20;99.90;;;;;;6127323;23;20015;-89
2022/03/13 12:27:53;;;;;;;;;;;13.70;99.90;;;;;;6128328;23;19921;-89
2022/03/13 12:30:26;;;;;;;;;;;13.60;99.90;;;;;;6128253;23;19929;-90
2022/03/13 12:32:59;;;;;;;;;;;13.70;99.90;;;;;;6127364;23;19925;-90
2022/03/13 12:35:26;;;;;;;;;;;13.70;99.90;;;;;;6128141;23;19968;-89
2022/03/13 12:37:55;;;;;;;;;;;13.70;99.90;;;;;;6128209;23;19921;-90
2022/03/13 12:40:23;;;;;;;;;;;13.60;99.90;;;;;;6127754;23;19921;-89
2022/03/13 12:42:53;;;;;;;;;;;14.00;99.90;;;;;;6129313;23;19928;-89
2022/03/13 12:45:21;;;;;;;;;;;13.60;99.90;;;;;;6127957;23;19932;-89
2022/03/13 12:47:49;;;;;;;;;;;13.50;99.90;;;;;;6127249;23;19921;-89
2022/03/13 12:50:18;;;;;;;;;;;13.60;99.90;;;;;;6128788;23;19920;-89
2022/03/13 12:52:54;;;;;;;;;;;13.60;99.90;;;;;;6127651;23;19925;-89
2022/03/13 12:55:22;;;;;;;;;;;13.60;99.90;;;;;;6127931;23;19921;-89
2022/03/13 12:57:53;;;;;;;;;;;13.70;99.90;;;;;;6131031;23;20298;-89
2022/03/13 13:00:21;;;;;;;;;;;13.90;99.90;;;;;;6127606;23;19980;-89
2022/03/13 13:02:59;;;;;;;;;;;12.30;99.90;;;;;;6127813;23;20011;-90
2022/03/13 13:05:27;;;;;;;;;;;14.00;99.90;;;;;;6128826;23;19931;-88
2022/03/13 13:07:57;;;;;;;;;;;14.00;99.90;;;;;;6128435;23;19928;-87
2022/03/13 13:10:25;;;;;;;;;;;14.00;99.90;;;;;;6130830;23;19920;-89
2022/03/13 13:12:52;;;;;;;;;;;13.70;99.90;;;;;;6128398;23;19927;-88
2022/03/13 13:15:22;;;;;;;;;;;13.80;99.90;;;;;;6128847;23;20257;-89
2022/03/13 13:17:50;;;;;;;;;;;14.00;99.90;;;;;;6130752;23;20329;-87
2022/03/13 13:20:21;;;;;;;;;;;14.00;99.80;;;;;;6127412;23;20317;-89
2022/03/13 13:22:49;;;;;;;;;;;14.00;99.50;;;;;;6127290;23;20008;-88
2022/03/13 13:25:17;;;;;;;;;;;13.80;99.60;;;;;;6129046;23;19924;-88
2022/03/13 13:27:45;;;;;;;;;;;13.80;99.90;;;;;;6127981;23;19931;-88
2022/03/13 13:30:22;;;;;;;;;;;13.90;99.90;;;;;;6127098;23;19975;-89
2022/03/13 13:32:50;;;;;;;;;;;14.00;99.50;;;;;;6127899;23;19952;-88
2022/03/13 13:35:23;;;;;;;;;;;13.70;99.80;;;;;;6126923;23;20454;-89
2022/03/13 13:38:03;;;;;;;;;;;13.80;99.60;;;;;;6128215;23;19920;-90
2022/03/13 13:40:32;;;;;;;;;;;14.10;99.80;;;;;;6127313;23;19920;-89
2022/03/13 13:43:01;;;;;;;;;;;13.80;99.90;;;;;;6128991;23;19928;-89
2022/03/13 13:45:32;;;;;;;;;;;13.90;99.30;;;;;;6128331;23;19921;-89
2022/03/13 13:48:13;;;;;;;;;;;13.90;99.40;;;;;;6128666;23;20003;-88
2022/03/13 13:50:40;;;;;;;;;;;13.70;99.90;;;;;;6126739;23;19976;-89
2022/03/13 13:53:12;;;;;;;;;;;13.90;99.90;;;;;;6127046;23;19921;-89
2022/03/13 13:55:40;;;;;;;;;;;13.90;99.20;;;;;;6126810;23;19921;-89
2022/03/13 13:58:16;;;;;;;;;;;14.00;99.30;;;;;;6129495;23;20348;-90
2022/03/13 14:00:43;;;;;;;;;;;14.10;99.40;;;;;;6131716;23;19921;-89
2022/03/13 14:03:10;;;;;;;;;;;14.00;99.70;;;;;;6129498;23;19951;-89
2022/03/13 14:05:37;;;;;;;;;;;14.00;99.80;;;;;;6127968;23;19921;-91
2022/03/13 14:08:04;;;;;;;;;;;14.40;99.90;;;;;;6128401;23;20328;-89
2022/03/13 14:10:33;;;;;;;;;;;14.00;99.60;;;;;;6127996;23;19921;-88
2022/03/13 14:13:02;;;;;;;;;;;13.80;99.90;;;;;;6129383;23;19956;-91
2022/03/13 14:15:29;;;;;;;;;;;13.90;99.90;;;;;;6128443;23;19921;-89
2022/03/13 14:17:56;;;;;;;;;;;14.00;99.90;;;;;;6130898;23;19980;-86
2022/03/13 14:20:23;;;;;;;;;;;13.90;99.90;;;;;;6130751;23;19921;-88
2022/03/13 14:22:50;;;;;;;;;;;13.90;99.90;;;;;;6127636;23;20277;-89
2022/03/13 14:25:17;;;;;;;;;;;14.00;99.90;;;;;;6127221;23;19921;-89
2022/03/13 14:27:47;;;;;;;;;;;14.00;99.90;;;;;;6127764;23;19932;-89